Time;durP1;ratioP1;P1;durP2;ratioP2;P2;SDS_P1;SDS_P2;PMS_P1;PMS_P2;Temp;Humidity;BMP_temperature;BMP_pressure;BME280_temperature;BME280_humidity;BME280_pressure;Samples;Min_cycle;Max_cycle;Signal;HPM_P1;HPM_P2
2023/06/25 00:00:57;;;;;;;21.52;11.57;;;21.50;99.90;;;;;;4934377;29;20230;-77
2023/06/25 00:03:23;;;;;;;20.38;11.55;;;21.40;99.90;;;;;;4935069;29;20191;-77
2023/06/25 00:05:49;;;;;;;17.33;11.48;;;21.40;99.90;;;;;;4929264;29;20211;-78
2023/06/25 00:08:16;;;;;;;16.92;11.93;;;21.40;99.90;;;;;;4923127;29;20267;-77
2023/06/25 00:10:42;;;;;;;21.85;12.52;;;21.40;99.90;;;;;;4934347;29;20191;-77
2023/06/25 00:13:08;;;;;;;17.27;12.30;;;21.40;99.90;;;;;;4937954;29;20183;-77
2023/06/25 00:15:34;;;;;;;17.42;12.02;;;21.40;99.90;;;;;;4938617;29;20535;-77
2023/06/25 00:18:00;;;;;;;18.88;12.27;;;21.40;99.90;;;;;;4938582;29;20234;-77
2023/06/25 00:20:26;;;;;;;16.95;12.45;;;21.40;99.90;;;;;;4935398;29;20207;-77
2023/06/25 00:22:53;;;;;;;16.02;12.63;;;21.30;99.90;;;;;;4919602;29;20188;-77
2023/06/25 00:25:19;;;;;;;15.75;11.80;;;21.30;99.90;;;;;;4928483;29;20542;-77
2023/06/25 00:27:47;;;;;;;16.98;11.43;;;21.30;99.90;;;;;;4921166;29;20198;-77
2023/06/25 00:30:15;;;;;;;16.02;10.73;;;21.30;99.90;;;;;;4923488;29;20645;-84
2023/06/25 00:32:41;;;;;;;17.10;10.63;;;21.30;99.90;;;;;;4890409;29;20655;-77
2023/06/25 00:35:11;;;;;;;21.50;11.70;;;21.20;99.90;;;;;;4898873;29;20238;-77
2023/06/25 00:37:38;;;;;;;15.98;10.93;;;21.30;99.90;;;;;;4904143;29;20199;-77
2023/06/25 00:40:07;;;;;;;17.13;11.07;;;21.20;99.90;;;;;;4920932;29;20724;-77
2023/06/25 00:42:41;;;;;;;20.20;11.20;;;21.20;99.90;;;;;;4938258;29;20186;-77
2023/06/25 00:45:16;;;;;;;16.50;11.23;;;21.20;99.90;;;;;;4901377;29;20187;-78
2023/06/25 00:47:42;;;;;;;17.15;11.32;;;21.20;99.90;;;;;;4910634;29;20656;-77
2023/06/25 00:50:13;;;;;;;15.73;11.27;;;21.20;99.90;;;;;;4902327;29;20203;-77
2023/06/25 00:52:39;;;;;;;18.10;10.98;;;21.20;99.90;;;;;;4918845;29;20176;-78
2023/06/25 00:55:08;;;;;;;17.90;11.95;;;21.10;99.90;;;;;;4920684;29;20194;-77
2023/06/25 00:57:37;;;;;;;21.33;12.88;;;21.10;99.90;;;;;;4909352;29;20626;-77
2023/06/25 01:00:04;;;;;;;15.88;11.90;;;21.10;99.90;;;;;;4903099;29;20184;-77
2023/06/25 01:03:00;;;;;;;16.77;12.48;;;21.10;99.90;;;;;;4926203;29;20196;-77
2023/06/25 01:05:39;;;;;;;21.35;12.75;;;21.00;99.90;;;;;;4919560;29;20184;-77
2023/06/25 01:08:10;;;;;;;18.33;12.40;;;21.00;99.90;;;;;;4925889;29;20203;-78
2023/06/25 01:10:37;;;;;;;18.25;11.73;;;21.00;99.90;;;;;;4935876;29;20274;-77
2023/06/25 01:13:04;;;;;;;16.90;11.70;;;20.90;99.90;;;;;;4921063;29;20176;-77
2023/06/25 01:15:30;;;;;;;17.10;11.43;;;20.90;99.90;;;;;;4937899;29;20258;-77
2023/06/25 01:17:57;;;;;;;17.65;12.60;;;20.90;99.90;;;;;;4932879;29;20311;-77
2023/06/25 01:20:27;;;;;;;16.77;13.02;;;20.90;99.90;;;;;;4921422;29;20659;-78
2023/06/25 01:22:57;;;;;;;17.52;13.02;;;20.90;99.90;;;;;;4901707;29;20195;-77
2023/06/25 01:25:24;;;;;;;22.13;12.30;;;20.90;99.90;;;;;;4918693;29;20517;-77
2023/06/25 01:27:50;;;;;;;22.08;12.85;;;20.90;99.90;;;;;;4930068;29;20230;-77
2023/06/25 01:30:17;;;;;;;20.42;12.80;;;20.90;99.90;;;;;;4920335;29;20194;-80
2023/06/25 01:32:44;;;;;;;20.42;12.32;;;20.80;99.90;;;;;;4904905;29;20222;-77
2023/06/25 01:35:15;;;;;;;18.08;12.63;;;20.80;99.90;;;;;;4904628;29;20279;-76
2023/06/25 01:37:41;;;;;;;21.73;12.88;;;20.80;99.90;;;;;;4919571;29;20190;-78
2023/06/25 01:40:10;;;;;;;17.73;12.30;;;20.70;99.90;;;;;;4918586;29;20267;-76
2023/06/25 01:42:36;;;;;;;16.35;12.00;;;20.70;99.90;;;;;;4939462;29;20187;-77
2023/06/25 01:45:03;;;;;;;15.40;11.25;;;20.70;99.90;;;;;;4924969;29;20191;-77
2023/06/25 01:47:29;;;;;;;19.13;12.32;;;20.70;99.90;;;;;;4896214;29;20210;-77
2023/06/25 01:49:55;;;;;;;16.83;12.13;;;20.70;99.90;;;;;;4921842;29;20668;-76
2023/06/25 01:52:21;;;;;;;21.08;11.43;;;20.70;99.90;;;;;;4886422;29;20194;-79
2023/06/25 01:54:47;;;;;;;20.67;12.50;;;20.60;99.90;;;;;;4941001;29;20190;-76
2023/06/25 01:57:14;;;;;;;21.95;13.15;;;20.60;99.90;;;;;;4921310;29;20198;-77
2023/06/25 01:59:40;;;;;;;19.85;13.15;;;20.60;99.90;;;;;;4916608;29;20274;-78
2023/06/25 02:02:06;;;;;;;15.55;13.30;;;20.60;99.90;;;;;;4919025;29;20210;-77
2023/06/25 02:04:32;;;;;;;17.45;12.90;;;20.50;99.90;;;;;;4922178;29;20242;-76
2023/06/25 02:06:58;;;;;;;23.55;13.43;;;20.50;99.90;;;;;;4922361;29;20687;-77
2023/06/25 02:09:24;;;;;;;23.25;14.48;;;20.40;99.90;;;;;;4915410;29;20619;-77
2023/06/25 02:11:49;;;;;;;24.90;14.10;;;20.40;99.90;;;;;;4932158;29;20207;-77
2023/06/25 02:14:16;;;;;;;23.15;15.00;;;20.40;99.90;;;;;;4905977;29;20698;-77
2023/06/25 02:16:42;;;;;;;21.30;15.60;;;20.40;99.90;;;;;;4935900;29;20221;-77
2023/06/25 02:19:08;;;;;;;21.02;14.43;;;20.30;99.90;;;;;;4916550;29;20582;-78
2023/06/25 02:21:33;;;;;;;19.73;14.65;;;20.30;99.90;;;;;;4911603;29;20699;-77
2023/06/25 02:23:59;;;;;;;26.05;15.15;;;20.20;99.90;;;;;;4900683;29;20196;-77
2023/06/25 02:26:25;;;;;;;22.75;15.25;;;20.20;99.90;;;;;;4918943;29;20195;-78
2023/06/25 02:28:51;;;;;;;21.15;14.95;;;20.20;99.90;;;;;;4917640;29;20574;-81
2023/06/25 02:31:18;;;;;;;21.58;14.77;;;20.20;99.90;;;;;;4913900;29;20191;-77
2023/06/25 02:33:44;;;;;;;22.33;15.30;;;20.20;99.90;;;;;;4936029;29;20699;-78
2023/06/25 02:36:09;;;;;;;24.95;15.07;;;20.20;99.90;;;;;;4913104;29;20271;-77
2023/06/25 02:38:35;;;;;;;23.50;15.77;;;20.10;99.90;;;;;;4917442;29;20247;-77
2023/06/25 02:41:01;;;;;;;23.42;16.65;;;20.10;99.90;;;;;;4895240;29;20250;-77
2023/06/25 02:43:27;;;;;;;25.50;15.63;;;20.10;99.90;;;;;;4932922;29;20254;-78
2023/06/25 02:45:52;;;;;;;26.55;16.02;;;20.10;99.90;;;;;;4935335;29;20187;-77
2023/06/25 02:48:18;;;;;;;24.73;16.33;;;20.10;99.90;;;;;;4934507;29;20190;-77
2023/06/25 02:50:44;;;;;;;24.77;16.92;;;20.10;99.90;;;;;;4931538;29;20195;-78
2023/06/25 02:53:10;;;;;;;24.77;16.15;;;20.10;99.90;;;;;;4922893;29;20191;-77
2023/06/25 02:55:35;;;;;;;24.92;17.48;;;20.10;99.90;;;;;;4918123;29;20187;-77
2023/06/25 02:58:01;;;;;;;24.08;17.00;;;20.00;99.90;;;;;;4934548;29;20179;-77
2023/06/25 03:00:28;;;;;;;26.67;16.73;;;20.00;99.90;;;;;;4923396;29;20199;-77
2023/06/25 03:02:55;;;;;;;25.15;17.02;;;20.00;99.90;;;;;;4907402;29;20244;-78
2023/06/25 03:05:21;;;;;;;23.17;16.95;;;20.00;99.90;;;;;;4915488;29;20188;-77
2023/06/25 03:07:51;;;;;;;27.73;16.63;;;20.00;99.90;;;;;;4912380;29;20215;-77
2023/06/25 03:10:18;;;;;;;24.45;17.40;;;20.00;99.90;;;;;;4903508;29;20582;-77
2023/06/25 03:12:44;;;;;;;27.08;16.85;;;19.90;99.90;;;;;;4901869;29;20190;-77
2023/06/25 03:15:10;;;;;;;23.75;16.27;;;19.90;99.90;;;;;;4922533;29;20188;-77
2023/06/25 03:17:36;;;;;;;27.02;17.20;;;19.90;99.90;;;;;;4916719;29;20556;-77
2023/06/25 03:20:03;;;;;;;25.63;17.48;;;19.90;99.90;;;;;;4918362;29;20218;-77
2023/06/25 03:22:29;;;;;;;29.73;17.60;;;19.90;99.90;;;;;;4936266;29;20195;-76
2023/06/25 03:24:55;;;;;;;25.05;17.58;;;19.90;99.90;;;;;;4915184;29;20221;-77
2023/06/25 03:27:21;;;;;;;28.42;18.08;;;19.90;99.90;;;;;;4923636;29;20202;-76
2023/06/25 03:29:47;;;;;;;28.05;17.70;;;19.90;99.90;;;;;;4919560;29;20707;-77
2023/06/25 03:32:13;;;;;;;27.77;18.00;;;19.90;99.90;;;;;;4904431;29;20191;-77
2023/06/25 03:34:40;;;;;;;23.77;16.63;;;19.80;99.90;;;;;;4918725;29;20231;-78
2023/06/25 03:37:06;;;;;;;23.40;16.83;;;19.80;99.90;;;;;;4930452;29;20644;-76
2023/06/25 03:39:32;;;;;;;24.95;16.45;;;19.80;99.90;;;;;;4919149;29;20215;-77
2023/06/25 03:41:58;;;;;;;25.67;17.50;;;19.80;99.90;;;;;;4922572;29;20350;-78
2023/06/25 03:44:24;;;;;;;25.17;16.73;;;19.80;99.90;;;;;;4922958;29;20191;-76
2023/06/25 03:46:50;;;;;;;23.58;17.02;;;19.80;99.90;;;;;;4906977;29;20680;-78
2023/06/25 03:49:15;;;;;;;25.55;16.02;;;19.80;99.90;;;;;;4921952;29;20202;-77
2023/06/25 03:51:41;;;;;;;24.63;16.65;;;19.80;99.90;;;;;;4906933;29;20199;-76
2023/06/25 03:54:07;;;;;;;24.33;17.20;;;19.80;99.90;;;;;;4922960;29;20190;-77
2023/06/25 03:56:35;;;;;;;29.48;18.17;;;19.80;99.90;;;;;;4938474;29;20213;-80
2023/06/25 03:59:01;;;;;;;27.25;16.80;;;19.70;99.90;;;;;;4924906;29;20192;-82
2023/06/25 04:01:27;;;;;;;25.45;16.77;;;19.70;99.90;;;;;;4915635;29;20706;-80
2023/06/25 04:03:52;;;;;;;24.95;16.88;;;19.70;99.90;;;;;;4937977;29;20223;-77
2023/06/25 04:06:19;;;;;;;25.73;16.88;;;19.70;99.90;;;;;;4935080;29;20183;-78
2023/06/25 04:08:45;;;;;;;22.27;16.17;;;19.70;99.90;;;;;;4918140;29;20291;-80
2023/06/25 04:11:11;;;;;;;21.42;15.02;;;19.60;99.90;;;;;;4918778;29;20566;-78
2023/06/25 04:13:37;;;;;;;26.65;16.00;;;19.60;99.90;;;;;;4906133;29;20187;-79
2023/06/25 04:16:07;;;;;;;25.98;16.83;;;19.60;99.90;;;;;;4922000;29;20274;-78
2023/06/25 04:18:34;;;;;;;24.08;16.20;;;19.60;99.90;;;;;;4906458;29;20183;-78
2023/06/25 04:21:00;;;;;;;23.27;15.45;;;19.60;99.90;;;;;;4918666;29;20215;-78
2023/06/25 04:23:26;;;;;;;23.58;15.60;;;19.60;99.90;;;;;;4921686;29;20640;-79
2023/06/25 04:25:52;;;;;;;22.35;15.43;;;19.60;99.90;;;;;;4937294;29;20291;-76
2023/06/25 04:28:18;;;;;;;20.35;14.75;;;19.60;99.90;;;;;;4938971;29;20182;-78
2023/06/25 04:30:44;;;;;;;22.00;13.98;;;19.60;99.90;;;;;;4933806;29;20691;-78
2023/06/25 04:33:11;;;;;;;21.55;14.50;;;19.70;99.90;;;;;;4925474;29;20638;-78
2023/06/25 04:35:40;;;;;;;19.48;13.60;;;19.70;99.90;;;;;;4904012;29;20191;-78
2023/06/25 04:38:06;;;;;;;19.80;13.63;;;19.70;99.90;;;;;;4902535;29;20192;-77
2023/06/25 04:40:32;;;;;;;18.95;12.85;;;19.70;99.90;;;;;;4918186;29;20305;-78
2023/06/25 04:42:59;;;;;;;16.77;11.93;;;19.70;99.90;;;;;;4919055;29;20260;-82
2023/06/25 04:45:26;;;;;;;17.40;13.18;;;19.70;99.90;;;;;;4901871;29;20222;-78
2023/06/25 04:47:51;;;;;;;20.65;12.40;;;19.70;99.90;;;;;;4902461;29;20188;-77
2023/06/25 04:50:17;;;;;;;17.45;12.10;;;19.80;99.90;;;;;;4887294;29;20203;-77
2023/06/25 04:52:43;;;;;;;20.08;13.65;;;19.80;99.90;;;;;;4915234;29;20219;-77
2023/06/25 04:55:09;;;;;;;18.48;13.02;;;19.90;99.90;;;;;;4935839;29;20270;-78
2023/06/25 04:57:35;;;;;;;18.73;12.80;;;19.90;99.90;;;;;;4938206;29;20190;-77
2023/06/25 05:00:00;;;;;;;18.80;12.63;;;20.00;99.90;;;;;;4919953;29;20203;-77
2023/06/25 05:02:26;;;;;;;20.67;12.88;;;20.00;99.90;;;;;;4913599;29;20184;-77
2023/06/25 05:04:52;;;;;;;17.02;12.95;;;20.00;99.90;;;;;;4933087;29;22016;-77
2023/06/25 05:07:18;;;;;;;17.80;12.40;;;20.10;99.90;;;;;;4912173;29;20793;-77
2023/06/25 05:09:43;;;;;;;17.88;12.60;;;20.10;99.90;;;;;;4903154;29;20483;-77
2023/06/25 05:12:09;;;;;;;17.35;11.98;;;20.10;99.90;;;;;;4937666;29;20192;-78
2023/06/25 05:14:36;;;;;;;22.48;12.63;;;20.10;99.90;;;;;;4937471;29;20358;-77
2023/06/25 05:17:02;;;;;;;19.67;12.68;;;20.20;99.90;;;;;;4919768;29;20531;-77
2023/06/25 05:19:28;;;;;;;16.13;12.23;;;20.20;99.90;;;;;;4932502;29;20192;-77
2023/06/25 05:21:54;;;;;;;18.80;12.65;;;20.30;99.90;;;;;;4897899;29;20294;-76
2023/06/25 05:24:19;;;;;;;23.88;12.18;;;20.30;99.90;;;;;;4901462;29;20188;-77
2023/06/25 05:26:45;;;;;;;20.55;12.10;;;20.30;99.90;;;;;;4918356;29;20188;-77
2023/06/25 05:29:11;;;;;;;20.60;12.10;;;20.40;99.90;;;;;;4921057;29;20196;-76
2023/06/25 05:31:36;;;;;;;20.90;12.68;;;20.40;99.90;;;;;;4917868;29;20195;-76
2023/06/25 05:34:02;;;;;;;17.40;12.23;;;20.40;99.90;;;;;;4918813;29;20711;-78
2023/06/25 05:36:29;;;;;;;16.67;12.30;;;20.40;99.90;;;;;;4926506;29;20689;-76
2023/06/25 05:38:55;;;;;;;18.70;12.25;;;20.40;99.90;;;;;;4916314;29;20220;-77
2023/06/25 05:41:21;;;;;;;18.10;12.10;;;20.40;99.90;;;;;;4901741;29;20207;-76
2023/06/25 05:43:46;;;;;;;18.58;11.73;;;20.50;99.90;;;;;;4937274;29;20557;-77
2023/06/25 05:46:13;;;;;;;15.55;11.30;;;20.50;99.90;;;;;;4920501;29;20192;-77
2023/06/25 05:48:43;;;;;;;16.92;11.43;;;20.50;99.90;;;;;;4919311;29;20397;-76
2023/06/25 05:51:09;;;;;;;16.98;12.02;;;20.60;99.90;;;;;;4898724;29;20199;-79
2023/06/25 05:53:43;;;;;;;26.95;11.52;;;20.60;99.90;;;;;;4931408;29;20633;-79
2023/06/25 05:56:09;;;;;;;20.90;11.32;;;20.70;99.90;;;;;;4935713;29;20239;-77
2023/06/25 05:58:36;;;;;;;15.30;10.25;;;20.80;99.90;;;;;;4932468;29;20183;-76
2023/06/25 06:01:03;;;;;;;15.38;10.20;;;20.80;99.90;;;;;;4917953;29;20211;-78
2023/06/25 06:03:30;;;;;;;16.00;10.32;;;20.90;99.90;;;;;;4936102;29;20186;-78
2023/06/25 06:05:57;;;;;;;13.45;9.57;;;20.90;99.90;;;;;;4919853;29;20186;-76
2023/06/25 06:08:23;;;;;;;17.25;10.57;;;21.00;99.90;;;;;;4920704;29;20262;-76
2023/06/25 06:10:49;;;;;;;14.25;10.23;;;21.00;99.90;;;;;;4930382;29;20675;-75
2023/06/25 06:13:15;;;;;;;13.95;9.50;;;21.10;99.90;;;;;;4936503;29;20188;-76
2023/06/25 06:15:41;;;;;;;11.57;9.27;;;21.10;99.90;;;;;;4936817;29;20175;-76
2023/06/25 06:18:06;;;;;;;12.77;9.52;;;21.20;99.90;;;;;;4925776;29;20210;-76
2023/06/25 06:20:32;;;;;;;12.93;9.27;;;21.20;99.90;;;;;;4928297;29;20278;-77
2023/06/25 06:22:58;;;;;;;13.02;9.45;;;21.30;99.90;;;;;;4914478;29;20321;-76
2023/06/25 06:25:25;;;;;;;12.82;8.70;;;21.30;99.90;;;;;;4936352;29;20234;-77
2023/06/25 06:27:52;;;;;;;17.50;9.40;;;21.40;99.90;;;;;;4936183;29;20184;-78
2023/06/25 06:30:18;;;;;;;15.23;9.63;;;21.50;99.90;;;;;;4936267;29;20255;-78
2023/06/25 06:32:44;;;;;;;15.05;9.07;;;21.50;99.90;;;;;;4931633;29;20268;-77
2023/06/25 06:35:10;;;;;;;13.45;8.82;;;21.60;99.90;;;;;;4918982;29;20234;-77
2023/06/25 06:37:35;;;;;;;14.02;9.85;;;21.60;99.90;;;;;;4936282;29;20195;-77
2023/06/25 06:40:02;;;;;;;14.27;9.10;;;21.70;99.90;;;;;;4935724;29;20207;-78
2023/06/25 06:42:27;;;;;;;12.98;9.18;;;21.80;99.90;;;;;;4915382;29;20286;-76
2023/06/25 06:44:53;;;;;;;18.98;8.85;;;21.80;99.90;;;;;;4933877;29;20183;-76
2023/06/25 06:47:19;;;;;;;12.88;8.85;;;21.90;99.90;;;;;;4918650;29;20194;-78
2023/06/25 06:49:46;;;;;;;14.27;8.82;;;21.90;99.90;;;;;;4936047;29;20202;-77
2023/06/25 06:52:13;;;;;;;13.77;9.73;;;22.00;99.90;;;;;;4917058;29;20197;-78
2023/06/25 06:54:39;;;;;;;13.27;9.02;;;22.10;99.90;;;;;;4897695;29;20195;-78
2023/06/25 06:57:05;;;;;;;17.13;10.30;;;22.20;99.90;;;;;;4934061;29;20191;-77
2023/06/25 06:59:31;;;;;;;14.05;9.82;;;22.30;99.90;;;;;;4936034;29;20186;-78
2023/06/25 07:01:57;;;;;;;12.20;8.90;;;22.30;99.90;;;;;;4935101;29;20208;-78
2023/06/25 07:04:22;;;;;;;14.55;9.48;;;22.40;99.90;;;;;;4930575;29;20187;-82
2023/06/25 07:06:48;;;;;;;17.70;9.57;;;22.50;99.90;;;;;;4934255;29;20202;-78
2023/06/25 07:09:14;;;;;;;15.98;10.10;;;22.50;99.90;;;;;;4903630;29;20183;-79
2023/06/25 07:11:40;;;;;;;12.68;9.88;;;22.60;99.90;;;;;;4919114;29;20615;-78
2023/06/25 07:14:06;;;;;;;15.40;9.20;;;22.70;99.90;;;;;;4916660;29;20187;-79
2023/06/25 07:16:33;;;;;;;16.88;9.88;;;22.80;99.90;;;;;;4935732;29;20239;-78
2023/06/25 07:18:59;;;;;;;12.50;9.15;;;22.90;99.90;;;;;;4935766;29;20168;-79
2023/06/25 07:21:24;;;;;;;17.80;11.75;;;23.00;99.90;;;;;;4915410;29;20230;-79
2023/06/25 07:23:50;;;;;;;16.13;10.88;;;23.10;99.90;;;;;;4918663;29;20267;-79
2023/06/25 07:26:16;;;;;;;13.80;11.88;;;23.20;99.90;;;;;;4914129;29;20270;-77
2023/06/25 07:28:42;;;;;;;17.55;11.05;;;23.30;99.90;;;;;;4919738;29;20195;-78
2023/06/25 07:31:07;;;;;;;15.50;10.20;;;23.40;99.90;;;;;;4917266;29;20206;-78
2023/06/25 07:33:33;;;;;;;17.23;10.80;;;23.40;99.90;;;;;;4935082;29;20246;-78
2023/06/25 07:35:59;;;;;;;19.88;12.75;;;23.60;99.90;;;;;;4914646;29;20199;-78
2023/06/25 07:38:24;;;;;;;21.85;14.15;;;23.70;99.90;;;;;;4908877;29;20666;-78
2023/06/25 07:40:50;;;;;;;18.75;13.50;;;23.80;99.90;;;;;;4918553;29;20219;-78
2023/06/25 07:43:16;;;;;;;20.95;14.68;;;23.90;99.90;;;;;;4918306;29;20183;-78
2023/06/25 07:45:41;;;;;;;18.88;15.15;;;23.90;99.90;;;;;;4925711;29;20188;-77
2023/06/25 07:48:07;;;;;;;19.85;14.10;;;24.00;99.90;;;;;;4901597;29;20215;-78
2023/06/25 07:50:33;;;;;;;21.38;13.73;;;24.00;99.90;;;;;;4935011;29;20195;-79
2023/06/25 07:52:59;;;;;;;18.50;13.85;;;24.10;99.90;;;;;;4935588;29;20664;-79
2023/06/25 07:55:25;;;;;;;18.35;13.65;;;24.20;99.90;;;;;;4933064;29;20188;-81
2023/06/25 07:57:51;;;;;;;15.32;11.80;;;24.20;99.90;;;;;;4932038;29;20187;-78
2023/06/25 08:00:17;;;;;;;18.77;13.32;;;24.30;99.90;;;;;;4935413;29;20636;-79
2023/06/25 08:02:42;;;;;;;20.50;14.48;;;24.40;99.90;;;;;;4920887;29;20192;-78
2023/06/25 08:05:09;;;;;;;20.00;13.20;;;24.50;99.90;;;;;;4918541;29;20622;-78
2023/06/25 08:07:35;;;;;;;19.10;13.90;;;24.60;99.90;;;;;;4917681;29;20199;-78
2023/06/25 08:10:01;;;;;;;17.25;13.07;;;24.70;99.90;;;;;;4935109;29;20640;-78
2023/06/25 08:12:26;;;;;;;18.05;13.68;;;24.80;99.90;;;;;;4926840;29;20641;-78
2023/06/25 08:14:52;;;;;;;21.52;14.30;;;24.90;99.90;;;;;;4922771;29;20190;-82
2023/06/25 08:17:18;;;;;;;15.85;13.18;;;25.00;99.90;;;;;;4933076;29;20188;-81
2023/06/25 08:19:43;;;;;;;15.35;12.38;;;25.00;99.90;;;;;;4918009;29;20644;-77
2023/06/25 08:22:09;;;;;;;18.25;13.70;;;25.10;99.90;;;;;;4934754;29;20261;-77
2023/06/25 08:24:35;;;;;;;17.85;13.63;;;25.20;99.90;;;;;;4931475;29;20274;-78
2023/06/25 08:27:01;;;;;;;16.40;13.63;;;25.30;99.90;;;;;;4922876;29;20210;-78
2023/06/25 08:29:26;;;;;;;19.05;13.35;;;25.40;99.90;;;;;;4919858;29;20636;-80
2023/06/25 08:31:53;;;;;;;14.77;11.73;;;25.40;99.90;;;;;;4922911;29;20200;-79
2023/06/25 08:34:18;;;;;;;17.05;13.80;;;25.60;99.90;;;;;;4934971;29;20257;-78
2023/06/25 08:36:44;;;;;;;16.23;11.85;;;25.70;99.90;;;;;;4930777;29;20259;-78
2023/06/25 08:39:10;;;;;;;18.02;13.48;;;25.80;99.90;;;;;;4912316;29;20210;-78
2023/06/25 08:41:35;;;;;;;16.77;13.63;;;25.80;99.90;;;;;;4938498;29;20233;-79
2023/06/25 08:44:02;;;;;;;21.33;15.50;;;25.90;99.90;;;;;;4936947;29;20739;-80
2023/06/25 08:46:29;;;;;;;17.48;12.30;;;26.00;99.90;;;;;;4927966;29;20511;-80
2023/06/25 08:48:56;;;;;;;16.33;10.57;;;26.10;99.90;;;;;;4919522;29;20266;-78
2023/06/25 08:51:25;;;;;;;16.15;11.27;;;26.20;99.90;;;;;;4935723;29;20207;-79
2023/06/25 08:53:51;;;;;;;13.35;10.63;;;26.30;99.90;;;;;;4909698;29;20572;-78
2023/06/25 08:56:17;;;;;;;15.90;10.98;;;26.50;99.90;;;;;;4903926;29;20246;-79
2023/06/25 08:58:44;;;;;;;13.40;10.93;;;26.60;99.90;;;;;;4920790;29;20213;-79
2023/06/25 09:01:13;;;;;;;16.60;10.63;;;26.80;99.90;;;;;;4920237;29;20215;-80
2023/06/25 09:03:42;;;;;;;15.35;10.77;;;26.90;99.90;;;;;;4927704;29;20195;-86
2023/06/25 09:06:13;;;;;;;14.73;11.25;;;26.90;99.90;;;;;;4929503;29;20180;-80
2023/06/25 09:08:41;;;;;;;10.82;8.57;;;26.90;99.90;;;;;;4911916;29;20581;-78
2023/06/25 09:11:07;;;;;;;13.07;9.65;;;27.00;99.90;;;;;;4924845;29;20269;-79
2023/06/25 09:13:33;;;;;;;10.85;8.48;;;27.10;99.70;;;;;;4933708;29;20197;-79
2023/06/25 09:16:07;;;;;;;13.32;9.75;;;27.20;99.20;;;;;;4920697;29;20551;-78
2023/06/25 09:18:33;;;;;;;12.25;9.23;;;27.30;98.80;;;;;;4937329;29;20225;-79
2023/06/25 09:21:04;;;;;;;10.10;8.40;;;27.40;98.20;;;;;;4932544;29;20212;-81
2023/06/25 09:23:30;;;;;;;13.45;8.48;;;27.50;97.80;;;;;;4931574;29;20187;-79
2023/06/25 09:25:56;;;;;;;13.35;8.45;;;27.60;97.30;;;;;;4937364;29;20226;-79
2023/06/25 09:28:22;;;;;;;11.57;8.57;;;27.60;96.90;;;;;;4936926;29;20209;-81
2023/06/25 09:30:48;;;;;;;15.48;10.93;;;27.70;96.30;;;;;;4927898;29;20188;-81
2023/06/25 09:33:15;;;;;;;10.13;8.30;;;27.70;95.90;;;;;;4918068;29;20179;-79
2023/06/25 09:35:41;;;;;;;11.35;7.70;;;27.70;95.40;;;;;;4903341;29;20707;-79
2023/06/25 09:38:07;;;;;;;11.63;6.95;;;27.80;94.90;;;;;;4919849;29;20225;-79
2023/06/25 09:40:33;;;;;;;11.13;7.22;;;27.80;94.60;;;;;;4936913;29;20226;-78
2023/06/25 09:43:00;;;;;;;9.60;6.90;;;28.00;93.70;;;;;;4916007;29;20537;-78
2023/06/25 09:45:27;;;;;;;9.63;7.22;;;28.10;92.50;;;;;;4936528;29;20546;-79
2023/06/25 09:47:54;;;;;;;8.00;6.43;;;28.10;91.50;;;;;;4920102;29;20556;-79
2023/06/25 09:50:43;;;;;;;11.38;6.85;;;28.10;90.70;;;;;;4920653;29;20547;-80
2023/06/25 09:53:16;;;;;;;10.40;7.20;;;28.20;90.60;;;;;;4932703;29;20179;-80
2023/06/25 09:55:42;;;;;;;8.13;6.40;;;28.30;90.30;;;;;;4936086;29;20183;-79
2023/06/25 09:58:09;;;;;;;10.98;7.50;;;28.40;90.00;;;;;;4930258;29;20189;-78
2023/06/25 10:00:38;;;;;;;10.50;8.30;;;28.40;87.70;;;;;;4919773;29;20242;-77
2023/06/25 10:03:04;;;;;;;10.63;7.68;;;28.40;87.00;;;;;;4922170;29;20228;-79
2023/06/25 10:05:30;;;;;;;13.70;9.15;;;28.40;87.20;;;;;;4915280;29;20222;-79
2023/06/25 10:07:58;;;;;;;10.65;8.48;;;28.40;86.70;;;;;;4936363;29;20182;-79
2023/06/25 10:10:26;;;;;;;9.15;7.40;;;28.40;86.90;;;;;;4904771;29;20185;-77
2023/06/25 10:12:52;;;;;;;8.38;7.05;;;28.40;87.00;;;;;;4933629;29;20296;-78
2023/06/25 10:15:36;;;;;;;13.48;7.90;;;28.40;87.50;;;;;;4917140;29;20278;-78
2023/06/25 10:18:05;;;;;;;9.30;7.40;;;28.50;87.10;;;;;;4927194;29;20191;-82
2023/06/25 10:20:36;;;;;;;10.13;7.20;;;28.60;85.90;;;;;;4936624;29;20634;-79
2023/06/25 10:23:11;;;;;;;11.52;8.25;;;28.70;85.60;;;;;;4937251;29;20179;-76
2023/06/25 10:25:40;;;;;;;9.23;6.65;;;28.70;85.50;;;;;;4935224;29;20222;-76
2023/06/25 10:28:10;;;;;;;7.90;6.85;;;28.80;84.20;;;;;;4938597;29;20257;-77
2023/06/25 10:30:47;;;;;;;9.82;6.50;;;28.80;83.10;;;;;;4919603;29;20549;-77
2023/06/25 10:33:17;;;;;;;9.30;6.70;;;28.90;82.70;;;;;;4932821;29;20183;-77
2023/06/25 10:35:49;;;;;;;22.73;8.02;;;29.00;82.00;;;;;;4886774;29;20263;-77
2023/06/25 10:38:16;;;;;;;10.13;6.75;;;29.20;81.20;;;;;;4937153;29;20186;-77
2023/06/25 10:40:42;;;;;;;9.00;7.43;;;29.20;80.40;;;;;;4937822;29;20220;-78
2023/06/25 10:43:09;;;;;;;9.88;7.82;;;29.20;80.00;;;;;;4921179;29;20298;-77
2023/06/25 10:45:35;;;;;;;8.73;6.20;;;29.20;79.30;;;;;;4933041;29;20191;-77
2023/06/25 10:48:07;;;;;;;9.05;7.03;;;29.20;78.30;;;;;;4919953;29;20187;-79
2023/06/25 10:50:34;;;;;;;9.45;6.57;;;29.20;77.10;;;;;;4922780;29;20186;-78
2023/06/25 10:53:01;;;;;;;8.68;6.57;;;29.10;77.20;;;;;;4935376;29;20179;-78
2023/06/25 10:55:27;;;;;;;8.52;6.32;;;29.20;76.50;;;;;;4932759;29;20205;-77
2023/06/25 10:57:55;;;;;;;9.48;6.47;;;29.10;76.10;;;;;;4920835;29;20191;-78
2023/06/25 11:00:22;;;;;;;8.85;5.97;;;29.20;76.20;;;;;;4935761;29;20198;-78
2023/06/25 11:02:52;;;;;;;7.65;6.18;;;29.30;75.90;;;;;;4935391;29;20187;-79
2023/06/25 11:05:20;;;;;;;12.13;6.30;;;29.40;75.70;;;;;;4934866;29;20194;-78
2023/06/25 11:07:51;;;;;;;11.57;7.50;;;29.50;74.90;;;;;;4928515;29;20195;-78
2023/06/25 11:10:17;;;;;;;6.85;6.22;;;29.50;74.60;;;;;;4920350;29;20184;-77
2023/06/25 11:12:43;;;;;;;8.55;6.20;;;29.60;74.20;;;;;;4876100;29;20647;-77
2023/06/25 11:15:09;;;;;;;7.43;5.85;;;29.70;73.80;;;;;;4928269;29;20214;-78
2023/06/25 11:17:35;;;;;;;12.10;6.65;;;29.80;73.40;;;;;;4923247;29;20613;-78
2023/06/25 11:20:01;;;;;;;6.90;5.95;;;29.90;72.90;;;;;;4900129;29;20179;-78
2023/06/25 11:22:28;;;;;;;10.38;7.18;;;30.00;72.70;;;;;;4935436;29;20704;-77
2023/06/25 11:24:56;;;;;;;8.95;6.47;;;30.00;72.40;;;;;;4934448;29;20215;-78
2023/06/25 11:27:26;;;;;;;8.98;6.03;;;30.10;72.20;;;;;;4933506;29;20285;-78
2023/06/25 11:29:56;;;;;;;7.80;6.40;;;30.10;71.50;;;;;;4935933;29;20186;-77
2023/06/25 11:32:23;;;;;;;9.00;6.32;;;30.10;70.90;;;;;;4936054;29;20366;-82
2023/06/25 11:34:49;;;;;;;9.90;7.00;;;30.10;71.30;;;;;;4902919;29;20233;-81
2023/06/25 11:37:18;;;;;;;7.80;5.90;;;30.10;71.40;;;;;;4936265;29;20195;-78
2023/06/25 11:39:49;;;;;;;9.60;7.78;;;30.10;71.30;;;;;;4936293;29;20274;-78
2023/06/25 11:42:17;;;;;;;14.85;6.18;;;30.10;71.20;;;;;;4935994;29;20240;-78
2023/06/25 11:44:44;;;;;;;9.30;6.63;;;30.10;70.90;;;;;;4934815;29;20189;-79
2023/06/25 11:47:11;;;;;;;8.63;5.75;;;30.00;70.80;;;;;;4932241;29;20206;-78
2023/06/25 11:49:37;;;;;;;7.43;5.85;;;30.00;71.00;;;;;;4919732;29;20640;-78
2023/06/25 11:52:04;;;;;;;8.27;6.20;;;30.10;71.60;;;;;;4919836;29;20189;-78
2023/06/25 11:54:29;;;;;;;7.07;6.25;;;30.10;70.90;;;;;;4906584;29;20207;-78
2023/06/25 11:56:55;;;;;;;17.88;5.82;;;30.20;70.40;;;;;;4902151;29;20658;-78
2023/06/25 11:59:21;;;;;;;8.27;6.32;;;30.20;69.50;;;;;;4922602;29;20186;-79
2023/06/25 12:01:47;;;;;;;6.53;5.63;;;30.20;68.80;;;;;;4932917;29;20217;-78
2023/06/25 12:04:12;;;;;;;6.10;5.20;;;30.20;68.70;;;;;;4923058;29;20604;-78
2023/06/25 12:06:38;;;;;;;7.05;5.43;;;30.20;68.30;;;;;;4940099;29;20698;-78
2023/06/25 12:09:04;;;;;;;6.50;5.38;;;30.20;67.60;;;;;;4888746;29;20210;-77
2023/06/25 12:11:30;;;;;;;6.93;5.20;;;30.20;66.90;;;;;;4921514;29;20530;-78
2023/06/25 12:13:56;;;;;;;7.28;5.60;;;30.10;66.80;;;;;;4932824;29;20189;-78
2023/06/25 12:16:22;;;;;;;6.75;5.60;;;30.20;67.10;;;;;;4922552;29;20194;-78
2023/06/25 12:18:47;;;;;;;9.35;5.53;;;30.20;66.60;;;;;;4923236;29;20269;-80
2023/06/25 12:21:13;;;;;;;8.35;5.60;;;30.20;66.30;;;;;;4922313;29;20309;-78
2023/06/25 12:23:39;;;;;;;9.13;5.10;;;30.30;66.10;;;;;;4932669;29;20191;-79
2023/06/25 12:26:05;;;;;;;7.68;4.97;;;30.30;65.40;;;;;;4939386;29;20187;-78
2023/06/25 12:28:31;;;;;;;8.35;5.45;;;30.30;65.20;;;;;;4939145;29;20587;-78
2023/06/25 12:30:56;;;;;;;6.50;4.55;;;30.30;64.70;;;;;;4938999;29;20277;-79